Time;durP1;ratioP1;P1;durP2;ratioP2;P2;SDS_P1;SDS_P2;PMS_P1;PMS_P2;Temp;Humidity;BMP_temperature;BMP_pressure;BME280_temperature;BME280_humidity;BME280_pressure;Samples;Min_cycle;Max_cycle;Signal;HPM_P1;HPM_P2
2023/10/02 00:01:17;;;;;;;;;;;13.20;99.90;;;;;;7582785;19;20903;-74
2023/10/02 00:04:15;;;;;;;;;;;13.00;99.90;;;;;;7582114;19;20009;-74
2023/10/02 00:06:42;;;;;;;;;;;13.00;99.90;;;;;;7577640;19;20855;-74
2023/10/02 00:09:14;;;;;;;;;;;13.10;99.90;;;;;;7580970;19;19923;-75
2023/10/02 00:11:46;;;;;;;;;;;13.10;99.90;;;;;;7578619;19;19921;-75
2023/10/02 00:14:19;;;;;;;;;;;13.00;99.90;;;;;;7581565;19;19939;-74
2023/10/02 00:16:59;;;;;;;;;;;13.00;99.90;;;;;;7564095;19;19929;-73
2023/10/02 00:19:37;;;;;;;;;;;12.90;99.90;;;;;;7565493;19;19923;-73
2023/10/02 00:22:34;;;;;;;;;;;12.90;99.90;;;;;;7571590;19;20721;-76
2023/10/02 00:25:07;;;;;;;;;;;12.90;99.90;;;;;;7565502;19;19953;-74
2023/10/02 00:27:39;;;;;;;;;;;12.90;99.90;;;;;;7570546;19;19926;-76
2023/10/02 00:30:13;;;;;;;;;;;12.80;99.90;;;;;;7567395;19;19953;-76
2023/10/02 00:32:46;;;;;;;;;;;12.80;99.90;;;;;;7572170;19;19920;-73
2023/10/02 00:35:22;;;;;;;;;;;12.80;99.90;;;;;;7574261;19;20448;-72
2023/10/02 00:37:55;;;;;;;;;;;12.80;99.90;;;;;;7566277;19;19922;-75
2023/10/02 00:40:30;;;;;;;;;;;12.80;99.90;;;;;;7572559;19;20261;-75
2023/10/02 00:43:33;;;;;;;;;;;12.80;99.90;;;;;;7573918;19;20416;-75
2023/10/02 00:45:58;;;;;;;;;;;12.40;99.90;;;;;;7568533;19;19923;-75
2023/10/02 00:48:33;;;;;;;;;;;12.50;99.90;;;;;;7571216;19;19934;-75
2023/10/02 00:51:11;;;;;;;;;;;12.50;99.90;;;;;;7568829;19;19998;-75
2023/10/02 00:53:48;;;;;;;;;;;12.40;99.90;;;;;;7571303;19;19922;-75
2023/10/02 00:56:22;;;;;;;;;;;12.40;99.90;;;;;;7562602;19;19926;-75
2023/10/02 00:59:00;;;;;;;;;;;12.40;99.90;;;;;;7575222;19;19922;-75
2023/10/02 01:01:34;;;;;;;;;;;12.30;99.90;;;;;;7565092;19;19998;-76
2023/10/02 01:04:08;;;;;;;;;;;12.30;99.90;;;;;;7556997;19;19923;-75
2023/10/02 01:09:36;;;;;;;;;;;12.20;99.90;;;;;;7571334;19;22293;-75
2023/10/02 01:12:10;;;;;;;;;;;12.20;99.90;;;;;;7568775;19;19918;-75
2023/10/02 01:14:52;;;;;;;;;;;12.20;99.90;;;;;;7573349;19;20041;-74
2023/10/02 01:17:26;;;;;;;;;;;12.10;99.90;;;;;;7566252;19;19918;-74
2023/10/02 01:20:00;;;;;;;;;;;12.10;99.90;;;;;;7565988;19;20430;-75
2023/10/02 01:22:38;;;;;;;;;;;12.30;99.90;;;;;;7580698;19;19922;-74
2023/10/02 01:25:13;;;;;;;;;;;12.40;99.90;;;;;;7563703;19;19927;-74
2023/10/02 01:27:50;;;;;;;;;;;12.40;99.90;;;;;;7584593;19;19922;-77
2023/10/02 01:30:24;;;;;;;;;;;12.30;99.90;;;;;;7576132;19;20815;-74
2023/10/02 01:33:13;;;;;;;;;;;12.30;99.90;;;;;;7573153;19;21147;-76
2023/10/02 01:35:51;;;;;;;;;;;12.20;99.90;;;;;;7574916;19;19925;-74
2023/10/02 01:38:24;;;;;;;;;;;12.10;99.90;;;;;;7578196;19;19922;-74
2023/10/02 01:41:03;;;;;;;;;;;12.10;99.90;;;;;;7570287;19;19930;-73
2023/10/02 01:43:43;;;;;;;;;;;12.00;99.90;;;;;;7579662;19;19914;-73
2023/10/02 01:46:22;;;;;;;;;;;12.00;99.90;;;;;;7575212;19;19927;-73
2023/10/02 01:48:55;;;;;;;;;;;11.90;99.90;;;;;;7579484;19;19927;-74
2023/10/02 01:51:31;;;;;;;;;;;11.90;99.90;;;;;;7570632;19;19925;-73
2023/10/02 01:54:15;;;;;;;;;;;11.90;99.90;;;;;;7574323;19;20431;-74
2023/10/02 01:56:48;;;;;;;;;;;11.80;99.90;;;;;;7576522;19;19923;-73
2023/10/02 01:59:21;;;;;;;;;;;11.80;99.90;;;;;;7577348;19;20835;-73
2023/10/02 02:01:56;;;;;;;;;;;11.80;99.90;;;;;;7572105;19;19914;-75
2023/10/02 02:04:33;;;;;;;;;;;11.80;99.90;;;;;;7573125;19;20656;-74
2023/10/02 02:07:08;;;;;;;;;;;11.70;99.90;;;;;;7575662;19;19919;-74
2023/10/02 02:09:43;;;;;;;;;;;11.70;99.90;;;;;;7569662;19;20396;-73
2023/10/02 02:12:15;;;;;;;;;;;11.70;99.90;;;;;;7568507;19;19954;-76
2023/10/02 02:14:51;;;;;;;;;;;11.70;99.90;;;;;;7577043;19;19926;-76
2023/10/02 02:17:28;;;;;;;;;;;11.70;99.90;;;;;;7582239;19;20002;-74
2023/10/02 02:20:01;;;;;;;;;;;11.60;99.90;;;;;;7574213;19;19919;-77
2023/10/02 02:22:36;;;;;;;;;;;11.60;99.90;;;;;;7581411;19;20516;-74
2023/10/02 02:25:09;;;;;;;;;;;11.60;99.90;;;;;;7574530;19;20939;-75
2023/10/02 02:27:46;;;;;;;;;;;11.50;99.90;;;;;;7575356;19;19974;-75
2023/10/02 02:30:23;;;;;;;;;;;11.50;99.90;;;;;;7580625;19;19915;-75
2023/10/02 02:32:55;;;;;;;;;;;11.50;99.90;;;;;;7563027;19;19922;-75
2023/10/02 02:35:28;;;;;;;;;;;11.50;99.90;;;;;;7580365;19;19914;-77
2023/10/02 02:38:02;;;;;;;;;;;11.40;99.90;;;;;;7576335;19;19938;-75
2023/10/02 02:40:35;;;;;;;;;;;11.40;99.90;;;;;;7564558;19;20866;-76
2023/10/02 02:43:19;;;;;;;;;;;11.40;99.90;;;;;;7571139;19;19922;-75
2023/10/02 02:45:51;;;;;;;;;;;11.40;99.90;;;;;;7588231;19;20018;-74
2023/10/02 02:48:43;;;;;;;;;;;11.40;99.90;;;;;;7571585;19;19925;-76
2023/10/02 02:51:18;;;;;;;;;;;11.40;99.90;;;;;;7562360;19;19961;-76
2023/10/02 02:53:51;;;;;;;;;;;11.40;99.90;;;;;;7569439;19;20497;-77
2023/10/02 02:56:23;;;;;;;;;;;11.30;99.90;;;;;;7575049;19;20650;-74
2023/10/02 02:58:56;;;;;;;;;;;11.30;99.90;;;;;;7569127;19;19923;-74
2023/10/02 03:01:29;;;;;;;;;;;11.40;99.90;;;;;;7581901;19;19922;-75
2023/10/02 03:04:13;;;;;;;;;;;11.50;99.90;;;;;;7571401;19;19963;-75
2023/10/02 03:07:07;;;;;;;;;;;11.50;99.90;;;;;;7568495;19;19919;-77
2023/10/02 03:09:38;;;;;;;;;;;11.40;99.90;;;;;;7568827;19;19954;-76
2023/10/02 03:12:10;;;;;;;;;;;11.30;99.90;;;;;;7570500;19;19942;-77
2023/10/02 03:14:43;;;;;;;;;;;11.30;99.90;;;;;;7580314;19;20536;-73
2023/10/02 03:17:31;;;;;;;;;;;11.30;99.90;;;;;;7567655;19;19928;-75
2023/10/02 03:20:07;;;;;;;;;;;11.30;99.90;;;;;;7577409;19;20273;-75
2023/10/02 03:22:39;;;;;;;;;;;11.30;99.90;;;;;;7578456;19;19927;-72
2023/10/02 03:25:40;;;;;;;;;;;11.30;99.90;;;;;;7572103;19;19930;-75
2023/10/02 03:28:28;;;;;;;;;;;11.30;99.90;;;;;;7572467;19;19923;-76
2023/10/02 03:31:00;;;;;;;;;;;11.30;99.90;;;;;;7573335;19;19958;-75
2023/10/02 03:33:33;;;;;;;;;;;11.50;99.90;;;;;;7571098;19;20549;-75
2023/10/02 03:36:08;;;;;;;;;;;11.60;99.90;;;;;;7559370;19;19957;-75
2023/10/02 03:38:43;;;;;;;;;;;11.50;99.90;;;;;;7567501;19;19930;-74
2023/10/02 03:41:16;;;;;;;;;;;11.30;99.90;;;;;;7544142;19;19990;-74
2023/10/02 03:43:49;;;;;;;;;;;11.20;99.90;;;;;;7565453;19;19910;-74
2023/10/02 03:46:35;;;;;;;;;;;11.10;99.90;;;;;;7558245;19;19914;-77
2023/10/02 03:49:09;;;;;;;;;;;11.10;99.90;;;;;;7578143;19;19922;-74
2023/10/02 03:51:41;;;;;;;;;;;11.20;99.90;;;;;;7583131;19;20018;-74
2023/10/02 03:54:23;;;;;;;;;;;11.20;99.90;;;;;;7579458;19;19922;-74
2023/10/02 03:56:55;;;;;;;;;;;11.10;99.90;;;;;;7569350;19;20006;-76
2023/10/02 03:59:31;;;;;;;;;;;11.10;99.90;;;;;;7572148;19;19944;-74
2023/10/02 04:04:55;;;;;;;;;;;11.00;99.90;;;;;;7574323;19;19930;-76
2023/10/02 04:07:30;;;;;;;;;;;10.90;99.90;;;;;;7579137;19;19933;-75
2023/10/02 04:10:06;;;;;;;;;;;10.90;99.90;;;;;;7563650;19;19929;-75
2023/10/02 04:12:50;;;;;;;;;;;10.90;99.90;;;;;;7575889;19;19923;-74
2023/10/02 04:15:22;;;;;;;;;;;10.90;99.90;;;;;;7572574;19;20325;-74
2023/10/02 04:17:54;;;;;;;;;;;10.90;99.90;;;;;;7568535;19;19923;-75
2023/10/02 04:20:27;;;;;;;;;;;10.80;99.90;;;;;;7568973;19;20015;-74
2023/10/02 04:23:21;;;;;;;;;;;10.80;99.90;;;;;;7573041;19;20261;-75
2023/10/02 04:25:52;;;;;;;;;;;10.70;99.90;;;;;;7561326;19;21841;-75
2023/10/02 04:28:27;;;;;;;;;;;10.60;99.90;;;;;;7563809;19;21176;-74
2023/10/02 04:31:05;;;;;;;;;;;10.70;99.90;;;;;;7558288;19;19941;-75
2023/10/02 04:33:38;;;;;;;;;;;10.80;99.90;;;;;;7550124;19;22645;-75
2023/10/02 04:36:13;;;;;;;;;;;10.60;99.90;;;;;;7551843;19;20035;-74
2023/10/02 04:38:55;;;;;;;;;;;10.80;99.90;;;;;;7535814;19;20793;-74
2023/10/02 04:41:27;;;;;;;;;;;10.80;99.90;;;;;;7538145;19;20024;-74
2023/10/02 04:44:04;;;;;;;;;;;10.70;99.90;;;;;;7546321;19;22680;-75
2023/10/02 04:46:36;;;;;;;;;;;10.70;99.90;;;;;;7567951;19;20256;-75
2023/10/02 04:49:09;;;;;;;;;;;10.70;99.90;;;;;;7551168;19;20769;-71
2023/10/02 04:51:46;;;;;;;;;;;10.60;99.90;;;;;;7550016;19;20617;-72
2023/10/02 04:54:18;;;;;;;;;;;10.60;99.90;;;;;;7522891;19;19921;-75
2023/10/02 04:57:08;;;;;;;;;;;10.60;99.90;;;;;;7559077;19;20689;-74
2023/10/02 04:59:51;;;;;;;;;;;10.50;99.90;;;;;;7557334;19;20404;-76
2023/10/02 05:02:24;;;;;;;;;;;10.40;99.90;;;;;;7539994;19;19923;-76
2023/10/02 05:04:56;;;;;;;;;;;10.40;99.90;;;;;;7544283;19;19978;-75
2023/10/02 05:07:29;;;;;;;;;;;10.30;99.90;;;;;;7545115;19;19923;-75
2023/10/02 05:10:06;;;;;;;;;;;10.30;99.90;;;;;;7535293;19;20013;-73
2023/10/02 05:12:44;;;;;;;;;;;10.30;99.90;;;;;;7538542;19;19925;-76
2023/10/02 05:15:20;;;;;;;;;;;10.40;99.90;;;;;;7528647;19;19910;-75
2023/10/02 05:17:55;;;;;;;;;;;10.40;99.90;;;;;;7538214;19;19998;-75
2023/10/02 05:20:27;;;;;;;;;;;10.50;99.90;;;;;;7545635;19;19925;-74
2023/10/02 05:23:03;;;;;;;;;;;10.50;99.90;;;;;;7541714;19;19949;-74
2023/10/02 05:25:37;;;;;;;;;;;10.50;99.90;;;;;;7554674;19;19941;-74
2023/10/02 05:28:10;;;;;;;;;;;10.50;99.90;;;;;;7571684;19;19943;-75
2023/10/02 05:30:43;;;;;;;;;;;10.50;99.90;;;;;;7544717;19;19926;-73
2023/10/02 05:33:36;;;;;;;;;;;10.50;99.90;;;;;;7562542;19;19914;-74
2023/10/02 05:36:08;;;;;;;;;;;10.50;99.90;;;;;;7554371;19;20750;-74
2023/10/02 05:39:04;;;;;;;;;;;10.50;99.90;;;;;;7593966;19;19923;-73
2023/10/02 05:41:46;;;;;;;;;;;10.50;99.90;;;;;;7606485;19;19923;-75
2023/10/02 05:44:23;;;;;;;;;;;10.50;99.90;;;;;;7592794;19;20917;-73
2023/10/02 05:46:56;;;;;;;;;;;10.50;99.90;;;;;;7596905;19;19927;-74
2023/10/02 05:49:30;;;;;;;;;;;10.50;99.90;;;;;;7594821;19;19990;-73
2023/10/02 05:52:03;;;;;;;;;;;10.50;99.90;;;;;;7596106;19;22262;-75
2023/10/02 05:54:47;;;;;;;;;;;10.50;99.90;;;;;;7596386;19;19918;-74
2023/10/02 05:57:20;;;;;;;;;;;10.50;99.90;;;;;;7595356;19;20757;-74
2023/10/02 05:59:54;;;;;;;;;;;10.50;99.90;;;;;;7602097;19;19922;-76
2023/10/02 06:02:27;;;;;;;;;;;10.50;99.90;;;;;;7572511;19;19926;-77
2023/10/02 06:05:11;;;;;;;;;;;10.60;99.90;;;;;;7582106;19;19923;-76
2023/10/02 06:07:44;;;;;;;;;;;10.60;99.90;;;;;;7599184;19;19926;-75
2023/10/02 06:10:26;;;;;;;;;;;10.70;99.90;;;;;;7583330;19;20526;-73
2023/10/02 06:13:05;;;;;;;;;;;10.70;99.90;;;;;;7592275;19;19922;-74
2023/10/02 06:15:46;;;;;;;;;;;10.70;99.90;;;;;;7585402;19;20263;-75
2023/10/02 06:18:26;;;;;;;;;;;10.80;99.90;;;;;;7588952;19;19933;-72
2023/10/02 06:21:00;;;;;;;;;;;10.80;99.90;;;;;;7586704;19;19927;-71
2023/10/02 06:23:37;;;;;;;;;;;10.90;99.90;;;;;;7593161;19;20060;-71
2023/10/02 06:26:10;;;;;;;;;;;10.90;99.90;;;;;;7580797;19;19915;-73
2023/10/02 06:28:47;;;;;;;;;;;11.00;99.90;;;;;;7585549;19;19941;-72
2023/10/02 06:31:31;;;;;;;;;;;11.10;99.90;;;;;;7602566;19;20534;-72
2023/10/02 06:34:05;;;;;;;;;;;11.20;99.90;;;;;;7604553;19;19955;-72
2023/10/02 06:36:47;;;;;;;;;;;11.30;99.90;;;;;;7607135;19;20523;-72
2023/10/02 06:39:21;;;;;;;;;;;11.40;99.90;;;;;;7597511;19;19919;-72
2023/10/02 06:41:53;;;;;;;;;;;11.50;99.90;;;;;;7608927;19;20341;-72
2023/10/02 06:44:32;;;;;;;;;;;11.50;99.90;;;;;;7601423;19;19923;-71
2023/10/02 06:47:11;;;;;;;;;;;11.70;99.90;;;;;;7606191;19;19922;-72
2023/10/02 06:49:44;;;;;;;;;;;11.80;99.90;;;;;;7607363;19;19922;-72
2023/10/02 06:52:16;;;;;;;;;;;11.90;99.90;;;;;;7603741;19;20397;-72
2023/10/02 06:54:55;;;;;;;;;;;12.00;99.90;;;;;;7602335;19;19923;-73
2023/10/02 06:57:28;;;;;;;;;;;12.20;99.90;;;;;;7599835;19;19925;-72
2023/10/02 07:00:03;;;;;;;;;;;12.10;99.90;;;;;;7607195;19;19930;-72
2023/10/02 07:03:03;;;;;;;;;;;12.20;99.90;;;;;;7601097;19;19997;-85
2023/10/02 07:05:57;;;;;;;;;;;12.20;99.90;;;;;;7618500;19;19938;-85
2023/10/02 07:09:16;;;;;;;;;;;12.40;99.90;;;;;;7616768;19;19915;-85
2023/10/02 07:12:16;;;;;;;;;;;12.60;99.90;;;;;;7613441;19;19970;-85
2023/10/02 07:15:20;;;;;;;;;;;12.70;99.90;;;;;;7617915;19;20488;-84
2023/10/02 07:18:14;;;;;;;;;;;13.00;99.90;;;;;;7619205;19;20127;-84
2023/10/02 07:21:21;;;;;;;;;;;13.00;99.90;;;;;;7617306;19;19938;-84
2023/10/02 07:27:37;;;;;;;;;;;13.70;99.90;;;;;;7614255;19;19958;-85
2023/10/02 07:30:46;;;;;;;;;;;14.00;99.90;;;;;;7612248;19;19956;-84
2023/10/02 07:34:08;;;;;;;;;;;14.20;99.90;;;;;;7605234;19;20514;-85
2023/10/02 07:40:52;;;;;;;;;;;14.70;99.90;;;;;;7608394;19;20444;-84
2023/10/02 07:44:07;;;;;;;;;;;14.90;99.90;;;;;;7612570;19;20385;-84
2023/10/02 07:47:28;;;;;;;;;;;15.20;99.90;;;;;;7612058;19;20145;-85
2023/10/02 07:50:33;;;;;;;;;;;15.60;99.90;;;;;;7611550;19;19954;-85
2023/10/02 07:54:01;;;;;;;;;;;15.70;99.90;;;;;;7614655;19;19939;-84
2023/10/02 07:57:34;;;;;;;;;;;;;;;;;;;;;
2023/10/02 08:01:13;;;;;;;;;;;16.20;99.90;;;;;;7599827;19;20354;-85
2023/10/02 08:04:01;;;;;;;;;;;16.30;99.90;;;;;;7611059;19;20968;-85
2023/10/02 08:10:53;;;;;;;;;;;16.60;99.90;;;;;;7606554;19;19972;-85
2023/10/02 08:14:02;;;;;;;;;;;16.80;99.90;;;;;;7616645;19;19918;-85
2023/10/02 08:17:35;;;;;;;;;;;16.80;99.90;;;;;;7577015;19;19937;-85
2023/10/02 08:20:56;;;;;;;;;;;16.90;99.90;;;;;;7609159;19;20992;-85
2023/10/02 08:24:14;;;;;;;;;;;17.00;99.90;;;;;;7598802;19;19958;-85
2023/10/02 08:32:35;;;;;;;;;;;17.20;99.90;;;;;;7603224;19;19926;-86
2023/10/02 08:39:21;;;;;;;;;;;17.40;99.90;;;;;;7612252;19;19979;-75
2023/10/02 08:41:59;;;;;;;;;;;17.60;99.90;;;;;;7607404;19;19922;-76
2023/10/02 08:44:37;;;;;;;;;;;17.60;99.90;;;;;;7606116;19;19929;-75
2023/10/02 08:47:35;;;;;;;;;;;17.60;99.90;;;;;;7604254;19;20679;-75
2023/10/02 08:50:04;;;;;;;;;;;17.80;99.90;;;;;;7607324;19;19915;-76
2023/10/02 08:52:47;;;;;;;;;;;17.90;99.90;;;;;;7606775;19;19992;-75
2023/10/02 08:55:36;;;;;;;;;;;18.00;99.90;;;;;;7591629;19;19923;-76
2023/10/02 08:58:22;;;;;;;;;;;18.10;99.90;;;;;;7604111;19;19926;-75
2023/10/02 09:01:29;;;;;;;;;;;18.20;99.90;;;;;;7576489;19;19919;-75
2023/10/02 09:06:44;;;;;;;;;;;18.40;99.90;;;;;;7592009;19;19990;-75
2023/10/02 09:09:36;;;;;;;;;;;18.50;99.90;;;;;;7583500;19;19962;-76
2023/10/02 09:12:12;;;;;;;;;;;18.60;99.90;;;;;;7596213;19;20439;-77
2023/10/02 09:14:45;;;;;;;;;;;18.70;99.90;;;;;;7594283;19;19914;-76
2023/10/02 09:17:18;;;;;;;;;;;18.80;99.90;;;;;;7599350;19;19928;-76
2023/10/02 09:20:02;;;;;;;;;;;18.90;99.90;;;;;;7590275;19;20336;-76
2023/10/02 09:22:41;;;;;;;;;;;19.00;99.90;;;;;;7584380;19;19922;-74
2023/10/02 09:25:15;;;;;;;;;;;19.00;99.90;;;;;;7588636;19;20425;-75
2023/10/02 09:27:54;;;;;;;;;;;19.10;99.90;;;;;;7584347;19;25293;-76
2023/10/02 09:33:08;;;;;;;;;;;19.40;99.90;;;;;;7595255;19;19923;-75
2023/10/02 09:35:53;;;;;;;;;;;19.40;99.90;;;;;;7589506;19;19914;-75
2023/10/02 09:38:46;;;;;;;;;;;19.50;99.90;;;;;;7564010;19;19922;-74
2023/10/02 09:41:20;;;;;;;;;;;19.50;99.90;;;;;;7593968;19;20401;-75
2023/10/02 09:43:53;;;;;;;;;;;19.60;99.90;;;;;;7603410;19;19937;-75
2023/10/02 09:46:29;;;;;;;;;;;19.70;99.90;;;;;;7582590;19;19927;-75
2023/10/02 09:49:08;;;;;;;;;;;19.80;99.90;;;;;;7570943;19;19925;-75
2023/10/02 09:51:45;;;;;;;;;;;20.00;99.90;;;;;;7578377;19;19922;-73
2023/10/02 09:54:21;;;;;;;;;;;20.10;99.90;;;;;;7582688;19;19930;-77
2023/10/02 09:57:05;;;;;;;;;;;20.20;99.90;;;;;;7587918;19;19915;-76
2023/10/02 09:59:45;;;;;;;;;;;20.10;99.90;;;;;;7561171;19;19922;-76
2023/10/02 10:08:17;;;;;;;;;;;20.60;99.90;;;;;;7581830;19;19919;-75
2023/10/02 10:10:48;;;;;;;;;;;20.60;99.90;;;;;;7549131;19;19922;-77
2023/10/02 10:13:32;;;;;;;;;;;20.70;99.90;;;;;;7574005;19;25105;-77
2023/10/02 10:16:19;;;;;;;;;;;20.80;99.90;;;;;;7576023;19;19974;-75
2023/10/02 10:22:04;;;;;;;;;;;21.00;99.90;;;;;;7565731;19;20253;-76
2023/10/02 10:24:55;;;;;;;;;;;21.00;99.90;;;;;;7565260;19;20499;-76
2023/10/02 10:27:38;;;;;;;;;;;21.10;99.90;;;;;;7564523;19;19922;-74
2023/10/02 10:30:24;;;;;;;;;;;21.00;99.90;;;;;;7568331;19;19919;-75
2023/10/02 10:35:51;;;;;;;;;;;21.10;99.90;;;;;;7584302;19;19911;-75
2023/10/02 10:38:36;;;;;;;;;;;21.20;99.90;;;;;;7583443;19;19914;-74
2023/10/02 10:41:09;;;;;;;;;;;21.30;99.90;;;;;;7574821;19;19938;-74
2023/10/02 10:46:24;;;;;;;;;;;21.50;99.90;;;;;;7562248;19;19990;-74
2023/10/02 10:49:23;;;;;;;;;;;21.60;99.90;;;;;;7570440;19;19942;-73
2023/10/02 10:51:58;;;;;;;;;;;21.70;99.90;;;;;;7555413;19;19923;-75
2023/10/02 10:54:39;;;;;;;;;;;21.90;99.90;;;;;;7568965;19;19961;-74
2023/10/02 10:57:29;;;;;;;;;;;22.20;99.90;;;;;;7586911;19;20591;-74
2023/10/02 11:00:23;;;;;;;;;;;22.20;99.90;;;;;;7584815;19;20090;-72
2023/10/02 11:03:19;;;;;;;;;;;22.30;99.90;;;;;;7540886;19;20271;-74
2023/10/02 11:05:58;;;;;;;;;;;22.50;99.90;;;;;;7562096;19;20432;-74
2023/10/02 11:08:33;;;;;;;;;;;22.50;99.90;;;;;;7567375;19;19929;-74
2023/10/02 11:11:11;;;;;;;;;;;22.60;99.90;;;;;;7561145;19;19968;-74
2023/10/02 11:13:55;;;;;;;;;;;22.70;99.90;;;;;;7592341;19;19926;-73
2023/10/02 11:16:35;;;;;;;;;;;22.90;99.10;;;;;;7570276;19;19926;-74
2023/10/02 11:22:02;;;;;;;;;;;24.10;97.90;;;;;;7584663;19;20522;-75
2023/10/02 11:24:34;;;;;;;;;;;24.50;97.70;;;;;;7582900;19;19926;-75
2023/10/02 11:27:07;;;;;;;;;;;25.50;95.20;;;;;;7558218;19;19927;-75
2023/10/02 11:29:42;;;;;;;;;;;27.10;92.40;;;;;;7538469;19;20350;-75
2023/10/02 11:32:23;;;;;;;;;;;28.30;90.00;;;;;;7555487;19;19926;-75
2023/10/02 11:34:59;;;;;;;;;;;28.70;87.00;;;;;;7555134;19;21771;-75
2023/10/02 11:37:31;;;;;;;;;;;29.20;81.40;;;;;;7539988;19;19929;-74
2023/10/02 11:40:04;;;;;;;;;;;30.00;79.70;;;;;;7571864;19;19955;-74
2023/10/02 11:42:36;;;;;;;;;;;30.20;77.00;;;;;;7541822;19;19918;-76
2023/10/02 11:45:10;;;;;;;;;;;30.80;73.00;;;;;;7540892;19;19929;-73
2023/10/02 11:47:42;;;;;;;;;;;31.10;71.30;;;;;;7554212;19;19931;-73
2023/10/02 11:50:18;;;;;;;;;;;31.50;69.80;;;;;;7552316;19;20397;-75
2023/10/02 11:52:51;;;;;;;;;;;31.60;66.70;;;;;;7558669;19;19919;-75
2023/10/02 11:55:24;;;;;;;;;;;32.10;65.30;;;;;;7566715;19;19926;-76
2023/10/02 11:57:56;;;;;;;;;;;32.60;65.40;;;;;;7558894;19;19974;-75
2023/10/02 12:00:29;;;;;;;;;;;33.10;63.70;;;;;;7559097;19;19920;-75
2023/10/02 12:03:01;;;;;;;;;;;32.20;61.60;;;;;;7568223;19;19932;-74
2023/10/02 12:05:36;;;;;;;;;;;32.70;62.80;;;;;;7566965;19;19918;-73
2023/10/02 12:08:09;;;;;;;;;;;33.20;59.80;;;;;;7555078;19;19964;-75
2023/10/02 12:10:41;;;;;;;;;;;33.30;59.90;;;;;;7572332;19;20786;-76
2023/10/02 12:13:13;;;;;;;;;;;33.70;59.10;;;;;;7571055;19;19952;-75
2023/10/02 12:15:46;;;;;;;;;;;34.10;56.90;;;;;;7575339;19;19937;-74
2023/10/02 12:18:18;;;;;;;;;;;34.00;56.50;;;;;;7538811;19;19922;-74
2023/10/02 12:20:50;;;;;;;;;;;34.30;55.60;;;;;;7522840;19;20702;-76
2023/10/02 12:23:23;;;;;;;;;;;34.30;56.30;;;;;;7552167;19;19914;-76
2023/10/02 12:25:55;;;;;;;;;;;34.70;55.90;;;;;;7544460;19;22137;-73
2023/10/02 12:28:28;;;;;;;;;;;34.70;54.90;;;;;;7537324;19;20259;-77
2023/10/02 12:31:05;;;;;;;;;;;34.60;55.10;;;;;;7547862;19;20612;-73
2023/10/02 12:33:41;;;;;;;;;;;34.90;55.20;;;;;;7539284;19;20266;-75
2023/10/02 12:36:17;;;;;;;;;;;34.30;54.90;;;;;;7548146;19;19949;-75
2023/10/02 12:38:50;;;;;;;;;;;34.10;54.50;;;;;;7559380;19;25592;-76
2023/10/02 12:41:24;;;;;;;;;;;34.30;54.60;;;;;;7585235;19;19986;-75
2023/10/02 12:43:56;;;;;;;;;;;35.10;54.10;;;;;;7569864;19;19922;-73
2023/10/02 12:46:30;;;;;;;;;;;35.70;53.40;;;;;;7573363;19;19919;-76
2023/10/02 12:49:04;;;;;;;;;;;35.90;51.60;;;;;;7552042;19;19927;-74
2023/10/02 12:51:38;;;;;;;;;;;36.30;50.00;;;;;;7568910;19;19983;-74
2023/10/02 12:54:11;;;;;;;;;;;36.60;49.60;;;;;;7563128;19;21076;-75
2023/10/02 12:56:45;;;;;;;;;;;36.90;48.90;;;;;;7578154;19;19919;-75
2023/10/02 12:59:18;;;;;;;;;;;36.90;48.60;;;;;;7574257;19;19956;-76
2023/10/02 13:01:50;;;;;;;;;;;36.60;48.80;;;;;;7567299;19;19919;-75
2023/10/02 13:04:23;;;;;;;;;;;36.60;48.20;;;;;;7539065;19;19927;-77
2023/10/02 13:06:55;;;;;;;;;;;37.10;48.50;;;;;;7551263;19;19918;-76
2023/10/02 13:09:27;;;;;;;;;;;37.50;48.50;;;;;;7546413;19;19946;-76
2023/10/02 13:12:00;;;;;;;;;;;38.30;47.50;;;;;;7555510;19;19960;-76
2023/10/02 13:14:32;;;;;;;;;;;38.30;46.90;;;;;;7559071;19;19949;-74
2023/10/02 13:17:05;;;;;;;;;;;38.30;46.90;;;;;;7551856;19;19926;-76
2023/10/02 13:19:38;;;;;;;;;;;38.30;46.40;;;;;;7568446;19;20710;-74
2023/10/02 13:22:10;;;;;;;;;;;38.40;47.10;;;;;;7569437;19;19993;-75
2023/10/02 13:24:42;;;;;;;;;;;38.10;47.30;;;;;;7545641;19;19952;-77
2023/10/02 13:27:17;;;;;;;;;;;37.90;46.50;;;;;;7570240;19;20494;-75
2023/10/02 13:29:51;;;;;;;;;;;38.30;46.80;;;;;;7565596;19;19931;-76
2023/10/02 13:32:23;;;;;;;;;;;37.40;45.60;;;;;;7554179;19;19929;-75
2023/10/02 13:34:56;;;;;;;;;;;38.00;47.80;;;;;;7569600;19;19926;-74
2023/10/02 13:37:29;;;;;;;;;;;38.60;46.40;;;;;;7562845;19;19922;-74
2023/10/02 13:40:04;;;;;;;;;;;38.90;47.10;;;;;;7528470;19;20288;-73
2023/10/02 13:42:37;;;;;;;;;;;39.20;45.90;;;;;;7560501;19;20406;-74
2023/10/02 13:45:09;;;;;;;;;;;39.10;45.80;;;;;;7545722;19;19922;-75
2023/10/02 13:47:41;;;;;;;;;;;39.30;45.80;;;;;;7567586;19;19930;-74
2023/10/02 13:50:14;;;;;;;;;;;40.20;45.40;;;;;;7562252;19;19922;-74
2023/10/02 13:52:47;;;;;;;;;;;40.40;44.40;;;;;;7562490;19;21312;-75
2023/10/02 13:55:22;;;;;;;;;;;40.00;43.90;;;;;;7557436;19;19919;-73
2023/10/02 13:57:59;;;;;;;;;;;39.90;43.70;;;;;;7556881;19;19918;-72
2023/10/02 14:00:39;;;;;;;;;;;40.10;44.10;;;;;;7545483;19;20263;-75
2023/10/02 14:03:13;;;;;;;;;;;40.00;43.40;;;;;;7566660;19;19927;-73
2023/10/02 14:05:45;;;;;;;;;;;39.70;45.30;;;;;;7548707;19;19914;-77
2023/10/02 14:08:17;;;;;;;;;;;39.90;44.20;;;;;;7552144;19;20023;-76
2023/10/02 14:10:50;;;;;;;;;;;40.30;43.50;;;;;;7550217;19;19923;-75
2023/10/02 14:13:22;;;;;;;;;;;39.90;43.50;;;;;;7535385;19;20046;-75
2023/10/02 14:16:01;;;;;;;;;;;40.10;43.90;;;;;;7547914;19;20240;-74
2023/10/02 14:18:35;;;;;;;;;;;40.40;43.10;;;;;;7539076;19;19915;-75
2023/10/02 14:21:09;;;;;;;;;;;40.20;43.80;;;;;;7552539;19;21289;-74
2023/10/02 14:23:46;;;;;;;;;;;40.50;43.90;;;;;;7535779;19;19933;-74
2023/10/02 14:26:22;;;;;;;;;;;40.50;43.90;;;;;;7550805;19;19927;-75
2023/10/02 14:28:55;;;;;;;;;;;40.70;44.80;;;;;;7549547;19;20726;-76
2023/10/02 14:31:35;;;;;;;;;;;40.20;44.30;;;;;;7558847;19;19938;-73
2023/10/02 14:34:07;;;;;;;;;;;40.00;44.60;;;;;;7552664;19;19922;-76
2023/10/02 14:36:39;;;;;;;;;;;39.60;44.50;;;;;;7561668;19;19945;-75
2023/10/02 14:39:15;;;;;;;;;;;37.50;45.30;;;;;;7549762;19;19923;-73
2023/10/02 14:41:48;;;;;;;;;;;35.30;47.90;;;;;;7550750;19;20875;-76
2023/10/02 14:44:21;;;;;;;;;;;33.50;50.50;;;;;;7550962;19;21015;-72
2023/10/02 14:46:53;;;;;;;;;;;32.60;52.40;;;;;;7536085;19;21135;-73
2023/10/02 14:49:25;;;;;;;;;;;31.90;53.30;;;;;;7553471;19;19918;-75
2023/10/02 14:51:59;;;;;;;;;;;31.20;55.40;;;;;;7566052;19;19937;-73
2023/10/02 14:54:31;;;;;;;;;;;30.50;55.30;;;;;;7545055;19;21142;-76
2023/10/02 14:57:03;;;;;;;;;;;30.20;56.60;;;;;;7545375;19;20360;-75
2023/10/02 14:59:36;;;;;;;;;;;29.60;57.40;;;;;;7557700;19;19915;-75
2023/10/02 15:02:10;;;;;;;;;;;29.30;57.60;;;;;;7560490;19;19939;-73
2023/10/02 15:04:43;;;;;;;;;;;29.00;59.30;;;;;;7548324;19;19971;-75
2023/10/02 15:07:15;;;;;;;;;;;28.70;61.50;;;;;;7555099;19;20772;-76
2023/10/02 15:09:47;;;;;;;;;;;28.40;63.00;;;;;;7560869;19;19918;-75
2023/10/02 15:12:20;;;;;;;;;;;28.30;64.30;;;;;;7552529;19;20982;-73
2023/10/02 15:14:52;;;;;;;;;;;27.90;65.50;;;;;;7563117;19;19953;-75
2023/10/02 15:17:26;;;;;;;;;;;27.60;66.60;;;;;;7552887;19;19926;-75
2023/10/02 15:19:59;;;;;;;;;;;27.40;67.80;;;;;;7548308;19;19914;-76
2023/10/02 15:22:32;;;;;;;;;;;27.20;68.80;;;;;;7562522;19;19922;-77
2023/10/02 15:25:05;;;;;;;;;;;26.90;69.60;;;;;;7556517;19;19919;-74
2023/10/02 15:27:39;;;;;;;;;;;26.60;70.70;;;;;;7549948;19;19918;-75
2023/10/02 15:30:15;;;;;;;;;;;26.50;71.40;;;;;;7550450;19;19926;-76
2023/10/02 15:32:48;;;;;;;;;;;26.50;71.70;;;;;;7565797;19;19923;-76
2023/10/02 15:35:20;;;;;;;;;;;26.40;72.50;;;;;;7560092;19;19927;-77
2023/10/02 15:37:58;;;;;;;;;;;26.20;73.80;;;;;;7543739;19;19926;-76
2023/10/02 15:40:33;;;;;;;;;;;26.00;73.50;;;;;;7550341;19;19926;-77
2023/10/02 15:43:07;;;;;;;;;;;25.90;74.40;;;;;;7551260;19;19925;-76
2023/10/02 15:45:39;;;;;;;;;;;25.80;75.10;;;;;;7564052;19;20006;-77
2023/10/02 15:48:11;;;;;;;;;;;25.80;76.00;;;;;;7566314;19;19923;-77
2023/10/02 15:50:44;;;;;;;;;;;25.70;75.70;;;;;;7560498;19;19923;-77
2023/10/02 15:53:17;;;;;;;;;;;25.50;76.60;;;;;;7556728;19;19930;-77
2023/10/02 15:55:49;;;;;;;;;;;25.30;77.40;;;;;;7545422;19;19918;-75
2023/10/02 15:58:22;;;;;;;;;;;25.30;78.20;;;;;;5534166;19;10000416;-76
2023/10/02 16:00:56;;;;;;;;;;;25.10;78.80;;;;;;7536568;19;21913;-76
2023/10/02 16:03:28;;;;;;;;;;;25.00;78.90;;;;;;7545297;19;19974;-77
2023/10/02 16:06:02;;;;;;;;;;;24.90;79.50;;;;;;7545784;19;19915;-75
2023/10/02 16:08:34;;;;;;;;;;;24.80;80.40;;;;;;7560579;19;20831;-76
2023/10/02 16:11:06;;;;;;;;;;;24.60;82.70;;;;;;7573488;19;20008;-75
2023/10/02 16:13:38;;;;;;;;;;;24.30;83.50;;;;;;7577991;19;19919;-76